Providence, Rhode Island
Traffic Map
Current Weather Conditions
Providence, Rhode Island
Overcast Haze
Overcast
57°
Feels Like: 57°
Wind Chill: 57° Ceiling: 600
Heat Index: 57° Visibility: 3mi
Dew Point: 55° Wind: 12mph
Humidity: 93% Direction: 10° (N)
Pressure: 29.95in Gusts: 0mph
Raw Report DataKPVD 220151Z 01010KT 3SM BR OVC006 14/13 A2995 RMK AO2 SLP143 T01390128
Traffic Incident Summary
Active as of:
Severity:
Category:
InformationThere was an issue retrieving the traffic information for this location. Please try a different location or try again shortly.
Advertisements
Track Severe Weather on mobile